Silver Millie — V7NP8 — position and weather

sailwx.info

Track history (hours):
 
Tides and Currents Weather Stations Pressure Air Temp Water Temp Dewpoint Dewpoint Depression Visibility Wind Speed Wind Dir Waves Ship Positions

Silver Millie

Last reported at 2018-Feb-21 01:30 UTC. Time now 2018-Feb-21 01:42 UTC.
Position N 49°29' E 000°07'.

Length 115 m; draft 5 m.

Type: Cargo ship. MMSI: 538002996.

Date/timePositionNaut miles runAvg speedWind from/ knotsBaromVisibWave heightAir tempDewpointWater temp
2018-Feb-21 01:30N 49°29' E 000°07'2 4.3
2018-Feb-21 00:58N 49°29' E 000°10'0 0.0
2018-Feb-21 00:28N 49°29' E 000°10'0 0.7
2018-Feb-20 23:58N 49°29' E 000°11'0 0.2
2018-Feb-20 23:28N 49°29' E 000°11'0 0.0
2018-Feb-20 22:58N 49°29' E 000°11'0 0.0
2018-Feb-20 22:28N 49°29' E 000°11'0 0.0
2018-Feb-20 21:58N 49°29' E 000°11'0 0.0
2018-Feb-20 21:28N 49°29' E 000°11'0 0.0
2018-Feb-20 20:58N 49°29' E 000°11'0 0.0
2018-Feb-20 20:28N 49°29' E 000°11'0 0.0
2018-Feb-20 19:58N 49°29' E 000°11'0 0.0
2018-Feb-20 19:28N 49°29' E 000°11'0 0.0
2018-Feb-20 18:58N 49°29' E 000°11'0 0.0
2018-Feb-20 18:28N 49°29' E 000°11'0 0.0
2018-Feb-20 17:58N 49°29' E 000°11'0 0.0
2018-Feb-20 17:25N 49°29' E 000°11'0 0.0
2018-Feb-20 16:58N 49°29' E 000°11'0 0.0
2018-Feb-20 16:28N 49°29' E 000°11'0 0.0
2018-Feb-20 15:58N 49°29' E 000°11'0 0.0
2018-Feb-20 15:28N 49°29' E 000°11'0 0.0
2018-Feb-20 14:58N 49°29' E 000°11'0 0.0
2018-Feb-20 14:28N 49°29' E 000°11'0 0.0
2018-Feb-20 13:55N 49°29' E 000°11'0 0.0
2018-Feb-20 13:28N 49°29' E 000°11'0 0.0
2018-Feb-20 12:58N 49°29' E 000°11'0 0.0
2018-Feb-20 12:28N 49°29' E 000°11'0 0.0
2018-Feb-20 11:58N 49°29' E 000°11'0 0.0
2018-Feb-20 11:28N 49°29' E 000°11'0 0.0
2018-Feb-20 10:58N 49°29' E 000°11'0 0.0
2018-Feb-20 10:28N 49°29' E 000°11'0 0.0
2018-Feb-20 09:58N 49°29' E 000°11'0 0.0
2018-Feb-20 09:28N 49°29' E 000°11'0 0.0
2018-Feb-20 08:58N 49°29' E 000°11'0 0.0
2018-Feb-20 08:28N 49°29' E 000°11'0 0.0
2018-Feb-20 07:58N 49°29' E 000°11'0 0.0
2018-Feb-20 07:28N 49°29' E 000°11'0 0.0
2018-Feb-20 06:58N 49°29' E 000°11'0 0.0
2018-Feb-20 06:28N 49°29' E 000°11'0 0.0
2018-Feb-20 05:58N 49°29' E 000°11'0 0.0
2018-Feb-20 05:28N 49°29' E 000°11'0 0.0
2018-Feb-20 04:58N 49°29' E 000°11'0 0.0
2018-Feb-20 04:28N 49°29' E 000°11'0 0.0
2018-Feb-20 03:58N 49°29' E 000°11'0 0.0
2018-Feb-20 03:28N 49°29' E 000°11'0 0.0
2018-Feb-20 02:58N 49°29' E 000°11'0 0.0
2018-Feb-20 02:28N 49°29' E 000°11'0 0.6
2018-Feb-20 02:00N 49°29' E 000°11'0 0.5
2018-Feb-20 01:30N 49°29' E 000°10'1 2.4
2018-Feb-20 01:00N 49°28' E 000°09'510.6
2018-Feb-20 00:30N 49°30' E 000°01'611.5
2018-Feb-20 00:00N 49°32' W 000°08'4 7.7
2018-Feb-19 23:30N 49°33' W 000°13'510.8
2018-Feb-19 23:01N 49°35' W 000°21'714.8
2018-Feb-19 22:31N 49°39' W 000°30'815.2
2018-Feb-19 22:01N 49°44' W 000°40'815.9
2018-Feb-19 21:31N 49°49' W 000°50'816.1
2018-Feb-19 21:01N 49°53' W 000°60'815.6
2018-Feb-19 20:30N 49°58' W 001°10'714.5
2018-Feb-19 20:00N 50°02' W 001°19'612.6
2018-Feb-19 19:30N 50°03' W 001°28'612.7
2018-Feb-19 19:00N 50°02' W 001°38'611.9
2018-Feb-19 18:30N 50°01' W 001°47'611.0
2018-Feb-19 18:00N 49°59' W 001°55'510.3
2018-Feb-19 17:30N 49°58' W 002°03'5 9.7
2018-Feb-19 17:00N 49°57' W 002°10'5 9.4
2018-Feb-19 16:30N 49°55' W 002°17'5 9.7
2018-Feb-19 15:59N 49°54' W 002°25'6 9.9
2018-Feb-19 15:22N 49°52' W 002°34'510.4
2018-Feb-19 14:56N 49°51' W 002°41'710.9
2018-Feb-19 14:16N 49°49' W 002°52'311.4
2018-Feb-19 13:58N 49°48' W 002°56'611.7
2018-Feb-19 13:26N 49°45' W 003°05'511.9
2018-Feb-19 13:00N 49°42' W 003°12'612.0
2018-Feb-19 12:28N 49°39' W 003°20'5012.7
2018-Feb-19 08:31N 49°13' W 004°27'713.8
2018-Feb-19 08:00N 49°10' W 004°36'714.2
2018-Feb-19 07:30N 49°06' W 004°46'814.7
2018-Feb-19 06:58N 49°02' W 004°56'714.7
2018-Feb-19 06:30N 48°59' W 005°06'714.8
2018-Feb-19 06:00N 48°55' W 005°15'714.9
2018-Feb-19 05:30N 48°52' W 005°25'714.5
2018-Feb-19 05:00N 48°48' W 005°34'713.3
2018-Feb-19 04:27N 48°42' W 005°41'613.0
2018-Feb-19 03:59N 48°36' W 005°45'510.1
2018-Feb-19 03:29N 48°32' W 005°43'4 7.6
2018-Feb-19 02:57N 48°28' W 005°42'4 9.9
2018-Feb-19 02:30N 48°23' W 005°40'612.1
2018-Feb-19 02:00N 48°18' W 005°38'712.8
2018-Feb-19 01:29N 48°11' W 005°35'612.6
2018-Feb-19 00:59N 48°05' W 005°33'612.3
2018-Feb-19 00:30N 47°59' W 005°31'612.1
2018-Feb-19 00:01N 47°54' W 005°29'611.9
2018-Feb-18 23:30N 47°48' W 005°26'711.6
2018-Feb-18 22:55N 47°41' W 005°23'511.8
2018-Feb-18 22:30N 47°39' W 005°17'611.7
2018-Feb-18 22:00N 47°35' W 005°10'711.8
2018-Feb-18 21:26N 47°32' W 005°02'511.6
2018-Feb-18 20:58N 47°29' W 004°55'811.6
2018-Feb-18 20:19N 47°24' W 004°46'811.6
2018-Feb-18 19:38N 47°20' W 004°36'10311.8
2018-Feb-18 10:53N 46°24' W 002°29'512.9
2018-Feb-18 10:28N 46°22' W 002°22'613.0
2018-Feb-18 10:00N 46°19' W 002°14'612.7
2018-Feb-18 09:30N 46°16' W 002°06'612.4
2018-Feb-18 09:00N 46°13' W 001°59'612.5
2018-Feb-18 08:30N 46°10' W 001°51'612.7
2018-Feb-18 08:00N 46°08' W 001°42'613.0
2018-Feb-18 07:30N 46°07' W 001°33'713.6
2018-Feb-18 07:00N 46°06' W 001°23'5 9.8
2018-Feb-18 06:31N 46°06' W 001°16'3 6.4
2018-Feb-18 06:00N 46°09' W 001°15'0 0.2
2018-Feb-18 05:28N 46°10' W 001°15'0 0.0
2018-Feb-18 04:58N 46°09' W 001°15'0 0.0
2018-Feb-18 04:28N 46°10' W 001°15'0 0.0
2018-Feb-18 03:58N 46°09' W 001°15'0 0.0
2018-Feb-18 03:28N 46°09' W 001°15'0 0.0
2018-Feb-18 02:58N 46°09' W 001°15'0 0.0
2018-Feb-18 02:28N 46°09' W 001°15'0 0.0
2018-Feb-18 01:58N 46°09' W 001°15'0 0.0
2018-Feb-18 01:28N 46°10' W 001°15'0 0.0
2018-Feb-18 00:58N 46°09' W 001°15'0 0.0
2018-Feb-18 00:28N 46°09' W 001°15'0 0.0
2018-Feb-17 23:58N 46°09' W 001°15'0 0.0
2018-Feb-17 23:28N 46°09' W 001°15'0 0.0
2018-Feb-17 22:58N 46°10' W 001°15'0 0.0
2018-Feb-17 22:28N 46°10' W 001°15'0 0.0
2018-Feb-17 21:58N 46°09' W 001°15'0 0.0
2018-Feb-17 21:28N 46°10' W 001°15'0 0.0
2018-Feb-17 20:58N 46°10' W 001°15'0 0.0
2018-Feb-17 20:28N 46°09' W 001°15'0 0.0
2018-Feb-17 19:58N 46°09' W 001°15'0 0.0
2018-Feb-17 19:28N 46°09' W 001°15'0 0.0
2018-Feb-17 18:58N 46°10' W 001°15'0 0.0
2018-Feb-17 18:28N 46°09' W 001°15'0 0.0
2018-Feb-17 17:58N 46°09' W 001°15'0 0.0
2018-Feb-17 17:28N 46°10' W 001°15'0 0.0
2018-Feb-17 16:58N 46°10' W 001°15'0 0.0
2018-Feb-17 16:28N 46°09' W 001°15'0 0.0
2018-Feb-17 15:58N 46°09' W 001°15'0 0.0
2018-Feb-17 15:28N 46°09' W 001°15'0 0.0
2018-Feb-17 14:58N 46°10' W 001°15'0 0.0
2018-Feb-17 14:28N 46°10' W 001°15'0 0.0
2018-Feb-17 13:58N 46°10' W 001°15'0 0.0
2018-Feb-17 13:28N 46°10' W 001°15'0 0.0
2018-Feb-17 12:58N 46°10' W 001°15'0 0.0
2018-Feb-17 12:28N 46°10' W 001°15'0 0.0
2018-Feb-17 11:58N 46°10' W 001°15'0 0.0
2018-Feb-17 11:28N 46°09' W 001°15'0 0.0
2018-Feb-17 10:58N 46°10' W 001°15'0 0.0
2018-Feb-17 10:28N 46°10' W 001°15'0 0.0
2018-Feb-17 09:58N 46°10' W 001°15'0 0.0
2018-Feb-17 09:28N 46°10' W 001°15'0 0.0
2018-Feb-17 08:58N 46°10' W 001°15'0 0.0
2018-Feb-17 08:30N 46°10' W 001°15'1 1.4
2018-Feb-17 08:00N 46°09' W 001°15'3 5.2
2018-Feb-17 07:31N 46°06' W 001°16'3 6.0
2018-Feb-17 07:00N 46°06' W 001°20'3 6.0
2018-Feb-17 06:30N 46°07' W 001°25'3 6.3
2018-Feb-17 06:00N 46°07' W 001°29'3 6.4
2018-Feb-17 05:30N 46°07' W 001°34'510.7
2018-Feb-17 05:00N 46°08' W 001°41'613.0
2018-Feb-17 04:30N 46°06' W 001°50'713.5
2018-Feb-17 03:59N 46°05' W 002°00'  
Track history (hours):
 
Tides and Currents Weather Stations Pressure Air Temp Water Temp Dewpoint Dewpoint Depression Visibility Wind Speed Wind Dir Waves Ship Positions

Silver Millie

Last reported at 2018-Feb-21 01:30 UTC. Time now 2018-Feb-21 01:42 UTC.
Position N 49°29' E 000°07'.

Length 115 m; draft 5 m.

Type: Cargo ship. MMSI: 538002996.

Date/timePositionNaut miles runAvg speedWind from/ knotsBaromVisibWave heightAir tempDewpointWater temp
2018-Feb-21 01:30N 49°29' E 000°07'2 4.3
2018-Feb-21 00:58N 49°29' E 000°10'0 0.0
2018-Feb-21 00:28N 49°29' E 000°10'0 0.7
2018-Feb-20 23:58N 49°29' E 000°11'0 0.2
2018-Feb-20 23:28N 49°29' E 000°11'0 0.0
2018-Feb-20 22:58N 49°29' E 000°11'0 0.0
2018-Feb-20 22:28N 49°29' E 000°11'0 0.0
2018-Feb-20 21:58N 49°29' E 000°11'0 0.0
2018-Feb-20 21:28N 49°29' E 000°11'0 0.0
2018-Feb-20 20:58N 49°29' E 000°11'0 0.0
2018-Feb-20 20:28N 49°29' E 000°11'0 0.0
2018-Feb-20 19:58N 49°29' E 000°11'0 0.0
2018-Feb-20 19:28N 49°29' E 000°11'0 0.0
2018-Feb-20 18:58N 49°29' E 000°11'0 0.0
2018-Feb-20 18:28N 49°29' E 000°11'0 0.0
2018-Feb-20 17:58N 49°29' E 000°11'0 0.0
2018-Feb-20 17:25N 49°29' E 000°11'0 0.0
2018-Feb-20 16:58N 49°29' E 000°11'0 0.0
2018-Feb-20 16:28N 49°29' E 000°11'0 0.0
2018-Feb-20 15:58N 49°29' E 000°11'0 0.0
2018-Feb-20 15:28N 49°29' E 000°11'0 0.0
2018-Feb-20 14:58N 49°29' E 000°11'0 0.0
2018-Feb-20 14:28N 49°29' E 000°11'0 0.0
2018-Feb-20 13:55N 49°29' E 000°11'0 0.0
2018-Feb-20 13:28N 49°29' E 000°11'0 0.0
2018-Feb-20 12:58N 49°29' E 000°11'0 0.0
2018-Feb-20 12:28N 49°29' E 000°11'0 0.0
2018-Feb-20 11:58N 49°29' E 000°11'0 0.0
2018-Feb-20 11:28N 49°29' E 000°11'0 0.0
2018-Feb-20 10:58N 49°29' E 000°11'0 0.0
2018-Feb-20 10:28N 49°29' E 000°11'0 0.0
2018-Feb-20 09:58N 49°29' E 000°11'0 0.0
2018-Feb-20 09:28N 49°29' E 000°11'0 0.0
2018-Feb-20 08:58N 49°29' E 000°11'0 0.0
2018-Feb-20 08:28N 49°29' E 000°11'0 0.0
2018-Feb-20 07:58N 49°29' E 000°11'0 0.0
2018-Feb-20 07:28N 49°29' E 000°11'0 0.0
2018-Feb-20 06:58N 49°29' E 000°11'0 0.0
2018-Feb-20 06:28N 49°29' E 000°11'0 0.0
2018-Feb-20 05:58N 49°29' E 000°11'0 0.0
2018-Feb-20 05:28N 49°29' E 000°11'0 0.0
2018-Feb-20 04:58N 49°29' E 000°11'0 0.0
2018-Feb-20 04:28N 49°29' E 000°11'0 0.0
2018-Feb-20 03:58N 49°29' E 000°11'0 0.0
2018-Feb-20 03:28N 49°29' E 000°11'0 0.0
2018-Feb-20 02:58N 49°29' E 000°11'0 0.0
2018-Feb-20 02:28N 49°29' E 000°11'0 0.6
2018-Feb-20 02:00N 49°29' E 000°11'0 0.5
2018-Feb-20 01:30N 49°29' E 000°10'1 2.4
2018-Feb-20 01:00N 49°28' E 000°09'510.6
2018-Feb-20 00:30N 49°30' E 000°01'611.5
2018-Feb-20 00:00N 49°32' W 000°08'4 7.7
2018-Feb-19 23:30N 49°33' W 000°13'510.8
2018-Feb-19 23:01N 49°35' W 000°21'714.8
2018-Feb-19 22:31N 49°39' W 000°30'815.2
2018-Feb-19 22:01N 49°44' W 000°40'815.9
2018-Feb-19 21:31N 49°49' W 000°50'816.1
2018-Feb-19 21:01N 49°53' W 000°60'815.6
2018-Feb-19 20:30N 49°58' W 001°10'714.5
2018-Feb-19 20:00N 50°02' W 001°19'612.6
2018-Feb-19 19:30N 50°03' W 001°28'612.7
2018-Feb-19 19:00N 50°02' W 001°38'611.9
2018-Feb-19 18:30N 50°01' W 001°47'611.0
2018-Feb-19 18:00N 49°59' W 001°55'510.3
2018-Feb-19 17:30N 49°58' W 002°03'5 9.7
2018-Feb-19 17:00N 49°57' W 002°10'5 9.4
2018-Feb-19 16:30N 49°55' W 002°17'5 9.7
2018-Feb-19 15:59N 49°54' W 002°25'6 9.9
2018-Feb-19 15:22N 49°52' W 002°34'510.4
2018-Feb-19 14:56N 49°51' W 002°41'710.9
2018-Feb-19 14:16N 49°49' W 002°52'311.4
2018-Feb-19 13:58N 49°48' W 002°56'611.7
2018-Feb-19 13:26N 49°45' W 003°05'511.9
2018-Feb-19 13:00N 49°42' W 003°12'612.0
2018-Feb-19 12:28N 49°39' W 003°20'5012.7
2018-Feb-19 08:31N 49°13' W 004°27'713.8
2018-Feb-19 08:00N 49°10' W 004°36'714.2
2018-Feb-19 07:30N 49°06' W 004°46'814.7
2018-Feb-19 06:58N 49°02' W 004°56'714.7
2018-Feb-19 06:30N 48°59' W 005°06'714.8
2018-Feb-19 06:00N 48°55' W 005°15'714.9
2018-Feb-19 05:30N 48°52' W 005°25'714.5
2018-Feb-19 05:00N 48°48' W 005°34'713.3
2018-Feb-19 04:27N 48°42' W 005°41'613.0
2018-Feb-19 03:59N 48°36' W 005°45'510.1
2018-Feb-19 03:29N 48°32' W 005°43'4 7.6
2018-Feb-19 02:57N 48°28' W 005°42'4 9.9
2018-Feb-19 02:30N 48°23' W 005°40'612.1
2018-Feb-19 02:00N 48°18' W 005°38'712.8
2018-Feb-19 01:29N 48°11' W 005°35'612.6
2018-Feb-19 00:59N 48°05' W 005°33'612.3
2018-Feb-19 00:30N 47°59' W 005°31'612.1
2018-Feb-19 00:01N 47°54' W 005°29'611.9
2018-Feb-18 23:30N 47°48' W 005°26'711.6
2018-Feb-18 22:55N 47°41' W 005°23'511.8
2018-Feb-18 22:30N 47°39' W 005°17'611.7
2018-Feb-18 22:00N 47°35' W 005°10'711.8
2018-Feb-18 21:26N 47°32' W 005°02'511.6
2018-Feb-18 20:58N 47°29' W 004°55'811.6
2018-Feb-18 20:19N 47°24' W 004°46'811.6
2018-Feb-18 19:38N 47°20' W 004°36'10311.8
2018-Feb-18 10:53N 46°24' W 002°29'512.9
2018-Feb-18 10:28N 46°22' W 002°22'613.0
2018-Feb-18 10:00N 46°19' W 002°14'612.7
2018-Feb-18 09:30N 46°16' W 002°06'612.4
2018-Feb-18 09:00N 46°13' W 001°59'612.5
2018-Feb-18 08:30N 46°10' W 001°51'612.7
2018-Feb-18 08:00N 46°08' W 001°42'613.0
2018-Feb-18 07:30N 46°07' W 001°33'713.6
2018-Feb-18 07:00N 46°06' W 001°23'5 9.8
2018-Feb-18 06:31N 46°06' W 001°16'3 6.4
2018-Feb-18 06:00N 46°09' W 001°15'0 0.2
2018-Feb-18 05:28N 46°10' W 001°15'0 0.0
2018-Feb-18 04:58N 46°09' W 001°15'0 0.0
2018-Feb-18 04:28N 46°10' W 001°15'0 0.0
2018-Feb-18 03:58N 46°09' W 001°15'0 0.0
2018-Feb-18 03:28N 46°09' W 001°15'0 0.0
2018-Feb-18 02:58N 46°09' W 001°15'0 0.0
2018-Feb-18 02:28N 46°09' W 001°15'0 0.0
2018-Feb-18 01:58N 46°09' W 001°15'0 0.0
2018-Feb-18 01:28N 46°10' W 001°15'0 0.0
2018-Feb-18 00:58N 46°09' W 001°15'0 0.0
2018-Feb-18 00:28N 46°09' W 001°15'0 0.0
2018-Feb-17 23:58N 46°09' W 001°15'0 0.0
2018-Feb-17 23:28N 46°09' W 001°15'0 0.0
2018-Feb-17 22:58N 46°10' W 001°15'0 0.0
2018-Feb-17 22:28N 46°10' W 001°15'0 0.0
2018-Feb-17 21:58N 46°09' W 001°15'0 0.0
2018-Feb-17 21:28N 46°10' W 001°15'0 0.0
2018-Feb-17 20:58N 46°10' W 001°15'0 0.0
2018-Feb-17 20:28N 46°09' W 001°15'0 0.0
2018-Feb-17 19:58N 46°09' W 001°15'0 0.0
2018-Feb-17 19:28N 46°09' W 001°15'0 0.0
2018-Feb-17 18:58N 46°10' W 001°15'0 0.0
2018-Feb-17 18:28N 46°09' W 001°15'0 0.0
2018-Feb-17 17:58N 46°09' W 001°15'0 0.0
2018-Feb-17 17:28N 46°10' W 001°15'0 0.0
2018-Feb-17 16:58N 46°10' W 001°15'0 0.0
2018-Feb-17 16:28N 46°09' W 001°15'0 0.0
2018-Feb-17 15:58N 46°09' W 001°15'0 0.0
2018-Feb-17 15:28N 46°09' W 001°15'0 0.0
2018-Feb-17 14:58N 46°10' W 001°15'0 0.0
2018-Feb-17 14:28N 46°10' W 001°15'0 0.0
2018-Feb-17 13:58N 46°10' W 001°15'0 0.0
2018-Feb-17 13:28N 46°10' W 001°15'0 0.0
2018-Feb-17 12:58N 46°10' W 001°15'0 0.0
2018-Feb-17 12:28N 46°10' W 001°15'0 0.0
2018-Feb-17 11:58N 46°10' W 001°15'0 0.0
2018-Feb-17 11:28N 46°09' W 001°15'0 0.0
2018-Feb-17 10:58N 46°10' W 001°15'0 0.0
2018-Feb-17 10:28N 46°10' W 001°15'0 0.0
2018-Feb-17 09:58N 46°10' W 001°15'0 0.0
2018-Feb-17 09:28N 46°10' W 001°15'0 0.0
2018-Feb-17 08:58N 46°10' W 001°15'0 0.0
2018-Feb-17 08:30N 46°10' W 001°15'1 1.4
2018-Feb-17 08:00N 46°09' W 001°15'3 5.2
2018-Feb-17 07:31N 46°06' W 001°16'3 6.0
2018-Feb-17 07:00N 46°06' W 001°20'3 6.0
2018-Feb-17 06:30N 46°07' W 001°25'3 6.3
2018-Feb-17 06:00N 46°07' W 001°29'3 6.4
2018-Feb-17 05:30N 46°07' W 001°34'510.7
2018-Feb-17 05:00N 46°08' W 001°41'613.0
2018-Feb-17 04:30N 46°06' W 001°50'713.5
2018-Feb-17 03:59N 46°05' W 002°00'  

Dump ship's entire track history